Time;durP1;ratioP1;P1;durP2;ratioP2;P2;SDS_P1;SDS_P2;PMS_P1;PMS_P2;Temp;Humidity;BMP_temperature;BMP_pressure;BME280_temperature;BME280_humidity;BME280_pressure;Samples;Min_cycle;Max_cycle;Signal;HPM_P1;HPM_P2
2021/08/10 00:00:11;;;;;;;;;;;20.20;94.60;20.40;99772.00;;;;341914;28;83621;-89
2021/08/10 00:00:22;;;;;;;;;;;20.20;94.70;20.40;99770.00;;;;337521;28;91286;-89
2021/08/10 00:00:34;;;;;;;;;;;20.20;94.60;20.30;99773.00;;;;340427;28;82574;-89
2021/08/10 00:00:46;;;;;;;;;;;20.20;94.60;20.30;99775.00;;;;340436;28;91678;-89
2021/08/10 00:00:58;;;;;;;;;;;20.20;94.70;20.20;99773.00;;;;341976;28;83462;-89
2021/08/10 00:01:11;;;;;;;;;;;20.20;94.80;20.30;99779.00;;;;341730;28;89851;-90
2021/08/10 00:01:23;;;;;;;;;;;20.20;94.80;20.20;99767.00;;;;340874;28;82406;-89
2021/08/10 00:01:35;;;;;;;;;;;20.20;94.90;20.30;99772.00;;;;338832;28;92305;-90
2021/08/10 00:01:49;;;;;;;;;;;20.20;94.90;20.40;99771.00;;;;343428;28;83502;-90
2021/08/10 00:02:01;;;;;;;;;;;20.20;94.80;20.50;99772.00;;;;344459;28;90547;-89
2021/08/10 00:02:13;;;;;;;;;;;20.20;94.80;20.50;99773.00;;;;340659;28;83557;-90
2021/08/10 00:02:26;;;;;;;;;;;20.20;94.80;20.50;99770.00;;;;337677;28;92013;-89
2021/08/10 00:02:38;;;;;;;;;;;20.20;94.80;20.40;99775.00;;;;343315;28;83180;-90
2021/08/10 00:02:50;;;;;;;;;;;20.20;94.80;20.40;99779.00;;;;340412;28;91247;-89
2021/08/10 00:03:02;;;;;;;;;;;20.20;94.80;20.30;99770.00;;;;340406;28;83659;-90
2021/08/10 00:03:15;;;;;;;;;;;20.20;94.80;20.30;99780.00;;;;342795;28;91801;-90
2021/08/10 00:03:27;;;;;;;;;;;20.20;94.70;20.40;99774.00;;;;340728;28;83339;-89
2021/08/10 00:03:39;;;;;;;;;;;20.20;94.60;20.40;99780.00;;;;338772;28;92462;-89
2021/08/10 00:03:52;;;;;;;;;;;20.20;94.80;20.40;99773.00;;;;340703;28;83331;-89
2021/08/10 00:04:04;;;;;;;;;;;20.20;94.80;20.30;99773.00;;;;342174;28;90514;-90
2021/08/10 00:04:16;;;;;;;;;;;20.20;94.80;20.40;99774.00;;;;340642;28;82618;-90
2021/08/10 00:04:28;;;;;;;;;;;20.20;94.80;20.40;99773.00;;;;340377;28;91370;-89
2021/08/10 00:04:39;;;;;;;;;;;20.20;94.70;20.40;99780.00;;;;342173;28;82509;-89
2021/08/10 00:04:52;;;;;;;;;;;20.20;94.80;20.30;99776.00;;;;340304;28;91886;-89
2021/08/10 00:05:06;;;;;;;;;;;20.20;94.80;20.40;99774.00;;;;342123;28;83363;-89
2021/08/10 00:05:18;;;;;;;;;;;20.20;94.70;20.40;99774.00;;;;340262;28;91363;-89
2021/08/10 00:05:29;;;;;;;;;;;20.20;94.70;20.30;99779.00;;;;340596;28;83441;-89
2021/08/10 00:05:47;;;;;;;;;;;20.20;94.80;20.20;99777.00;;;;342891;28;91731;-89
2021/08/10 00:05:59;;;;;;;;;;;20.20;94.80;20.10;99772.00;;;;341631;28;82614;-90
2021/08/10 00:06:11;;;;;;;;;;;20.20;94.90;20.20;99777.00;;;;338708;28;90715;-90
2021/08/10 00:06:23;;;;;;;;;;;20.20;95.00;20.30;99775.00;;;;340629;28;83448;-90
2021/08/10 00:06:34;;;;;;;;;;;20.20;94.90;20.30;99768.00;;;;341623;28;90696;-90
2021/08/10 00:06:46;;;;;;;;;;;20.20;94.90;20.40;99776.00;;;;342085;28;83435;-90
2021/08/10 00:06:58;;;;;;;;;;;20.20;94.80;20.40;99772.00;;;;341580;28;90568;-89
2021/08/10 00:07:10;;;;;;;;;;;20.20;94.80;20.20;99779.00;;;;340805;28;83358;-90
2021/08/10 00:07:22;;;;;;;;;;;20.20;94.90;20.20;99778.00;;;;343103;28;90377;-90
2021/08/10 00:07:34;;;;;;;;;;;20.20;94.90;20.30;99776.00;;;;343374;28;83388;-90
2021/08/10 00:07:46;;;;;;;;;;;20.20;94.90;20.30;99764.00;;;;342978;28;91285;-89
2021/08/10 00:07:58;;;;;;;;;;;20.20;94.90;20.30;99779.00;;;;343457;28;82356;-89
2021/08/10 00:08:10;;;;;;;;;;;20.20;94.80;20.30;99768.00;;;;341319;28;91169;-89
2021/08/10 00:08:22;;;;;;;;;;;20.20;94.80;20.30;99777.00;;;;340350;28;83446;-89
2021/08/10 00:08:34;;;;;;;;;;;20.20;94.80;20.40;99774.00;;;;341427;28;91512;-90
2021/08/10 00:08:46;;;;;;;;;;;20.20;94.80;20.30;99775.00;;;;342099;28;83446;-89
2021/08/10 00:08:57;;;;;;;;;;;20.20;94.90;20.30;99778.00;;;;341139;28;91555;-91
2021/08/10 00:09:09;;;;;;;;;;;20.20;94.80;20.30;99774.00;;;;338925;28;83492;-90
2021/08/10 00:09:21;;;;;;;;;;;20.20;94.80;20.30;99766.00;;;;338973;28;90629;-88
2021/08/10 00:09:33;;;;;;;;;;;20.20;94.70;20.30;99772.00;;;;341169;28;82525;-88
2021/08/10 00:09:45;;;;;;;;;;;20.20;94.70;20.30;99775.00;;;;340129;28;92716;-88
2021/08/10 00:09:56;;;;;;;;;;;20.20;94.80;20.20;99768.00;;;;338131;28;83394;-87
2021/08/10 00:10:09;;;;;;;;;;;20.10;94.90;20.30;99772.00;;;;342895;28;90648;-88
2021/08/10 00:10:21;;;;;;;;;;;20.10;94.70;20.30;99778.00;;;;342080;28;83499;-88
2021/08/10 00:10:33;;;;;;;;;;;20.10;94.80;20.30;99774.00;;;;337669;28;91620;-88
2021/08/10 00:10:45;;;;;;;;;;;20.10;94.90;20.30;99778.00;;;;340727;28;82573;-89
2021/08/10 00:10:57;;;;;;;;;;;20.10;95.00;20.30;99774.00;;;;340254;28;90478;-88
2021/08/10 00:11:08;;;;;;;;;;;20.20;94.90;20.30;99778.00;;;;340438;28;82643;-89
2021/08/10 00:11:20;;;;;;;;;;;20.20;94.80;20.30;99776.00;;;;340340;28;88801;-88
2021/08/10 00:11:32;;;;;;;;;;;20.10;94.90;20.30;99775.00;;;;343331;28;83431;-88
2021/08/10 00:11:44;;;;;;;;;;;20.10;94.90;20.30;99781.00;;;;338829;28;92480;-88
2021/08/10 00:11:59;;;;;;;;;;;20.10;94.80;20.30;99783.00;;;;343271;28;83416;-89
2021/08/10 00:12:11;;;;;;;;;;;20.10;94.80;20.30;99775.00;;;;340131;28;88920;-89
2021/08/10 00:12:22;;;;;;;;;;;20.10;94.70;20.30;99774.00;;;;340695;28;82681;-89
2021/08/10 00:12:34;;;;;;;;;;;20.10;94.80;20.30;99779.00;;;;338856;28;91547;-88
2021/08/10 00:12:46;;;;;;;;;;;20.10;95.00;20.30;99774.00;;;;342037;28;82499;-89
2021/08/10 00:12:59;;;;;;;;;;;20.10;94.90;20.20;99775.00;;;;340081;28;90851;-89
2021/08/10 00:13:12;;;;;;;;;;;20.10;94.80;20.20;99771.00;;;;339423;28;83469;-88
2021/08/10 00:13:24;;;;;;;;;;;20.10;94.90;20.20;99775.00;;;;338745;28;90431;-88
2021/08/10 00:13:35;;;;;;;;;;;20.10;94.90;20.20;99774.00;;;;340632;28;83467;-88
2021/08/10 00:13:47;;;;;;;;;;;20.10;94.90;20.20;99771.00;;;;338868;28;92374;-89
2021/08/10 00:13:59;;;;;;;;;;;20.10;94.90;20.20;99782.00;;;;340736;28;83401;-88
2021/08/10 00:14:11;;;;;;;;;;;20.10;95.10;20.20;99771.00;;;;338896;28;91249;-89
2021/08/10 00:14:23;;;;;;;;;;;20.10;95.10;20.20;99771.00;;;;341915;28;83574;-88
2021/08/10 00:14:35;;;;;;;;;;;20.10;95.00;20.20;99777.00;;;;341608;28;91441;-88
2021/08/10 00:14:47;;;;;;;;;;;20.10;95.10;20.20;99766.00;;;;336664;28;83322;-89
2021/08/10 00:14:59;;;;;;;;;;;20.10;95.00;20.20;99767.00;;;;340072;28;91368;-88
2021/08/10 00:15:11;;;;;;;;;;;20.10;94.90;20.20;99769.00;;;;342701;28;83626;-90
2021/08/10 00:15:23;;;;;;;;;;;20.10;94.90;20.20;99780.00;;;;341716;28;88782;-88
2021/08/10 00:15:34;;;;;;;;;;;20.10;95.00;20.10;99775.00;;;;340585;28;82565;-88
2021/08/10 00:15:46;;;;;;;;;;;20.10;95.00;20.10;99780.00;;;;336189;28;91408;-88
2021/08/10 00:15:58;;;;;;;;;;;20.10;95.10;20.20;99773.00;;;;340489;28;83442;-89
2021/08/10 00:16:10;;;;;;;;;;;20.10;95.10;20.20;99778.00;;;;340271;28;90964;-90
2021/08/10 00:16:22;;;;;;;;;;;20.10;95.00;20.10;99769.00;;;;343092;28;83574;-88
2021/08/10 00:16:34;;;;;;;;;;;20.10;95.20;20.10;99777.00;;;;341620;28;91350;-88
2021/08/10 00:16:46;;;;;;;;;;;20.10;95.30;20.20;99771.00;;;;340689;28;82583;-89
2021/08/10 00:16:58;;;;;;;;;;;20.10;95.10;20.20;99769.00;;;;341579;28;90197;-89
2021/08/10 00:17:09;;;;;;;;;;;20.10;95.20;20.20;99778.00;;;;342049;28;83592;-88
2021/08/10 00:17:21;;;;;;;;;;;20.00;95.20;20.20;99777.00;;;;344142;28;87936;-89
2021/08/10 00:17:33;;;;;;;;;;;20.00;95.20;20.20;99776.00;;;;340696;28;83420;-89
2021/08/10 00:17:45;;;;;;;;;;;20.00;95.10;20.20;99771.00;;;;341623;28;89696;-88
2021/08/10 00:17:57;;;;;;;;;;;20.00;95.10;20.10;99775.00;;;;343133;28;83438;-89
2021/08/10 00:18:08;;;;;;;;;;;20.00;95.10;20.10;99780.00;;;;337704;28;90479;-89
2021/08/10 00:18:20;;;;;;;;;;;20.00;95.10;20.10;99784.00;;;;341354;28;83619;-89
2021/08/10 00:18:32;;;;;;;;;;;20.00;95.20;20.10;99776.00;;;;341697;28;91476;-88
2021/08/10 00:18:44;;;;;;;;;;;20.00;95.10;20.10;99777.00;;;;341729;28;83533;-88
2021/08/10 00:18:55;;;;;;;;;;;20.00;95.10;20.10;99773.00;;;;340226;28;91570;-88
2021/08/10 00:19:08;;;;;;;;;;;20.00;95.10;20.10;99780.00;;;;343257;28;83587;-88
2021/08/10 00:19:20;;;;;;;;;;;20.00;95.30;20.20;99781.00;;;;343003;28;90149;-89
2021/08/10 00:19:31;;;;;;;;;;;20.10;95.20;20.20;99778.00;;;;342031;28;82561;-89
2021/08/10 00:19:43;;;;;;;;;;;20.00;95.20;20.20;99770.00;;;;337541;28;91291;-88
2021/08/10 00:19:55;;;;;;;;;;;20.00;95.20;20.20;99781.00;;;;339399;28;83523;-88
2021/08/10 00:20:08;;;;;;;;;;;20.00;95.20;20.20;99776.00;;;;340288;28;89241;-90
2021/08/10 00:20:20;;;;;;;;;;;20.00;95.10;20.20;99777.00;;;;340371;28;83442;-89
2021/08/10 00:20:32;;;;;;;;;;;20.00;95.30;20.10;99776.00;;;;340201;28;91451;-88
2021/08/10 00:20:44;;;;;;;;;;;20.00;95.40;20.00;99781.00;;;;342180;28;83405;-88
2021/08/10 00:20:55;;;;;;;;;;;20.00;95.50;20.10;99777.00;;;;337462;28;90075;-88
2021/08/10 00:21:07;;;;;;;;;;;20.00;95.40;20.20;99785.00;;;;338965;28;83473;-89
2021/08/10 00:21:19;;;;;;;;;;;20.00;95.30;20.10;99783.00;;;;338861;28;91378;-88
2021/08/10 00:21:31;;;;;;;;;;;20.00;95.40;20.10;99780.00;;;;338689;28;83465;-89
2021/08/10 00:21:43;;;;;;;;;;;20.00;95.40;20.20;99776.00;;;;339226;28;92398;-89
2021/08/10 00:21:55;;;;;;;;;;;20.00;95.30;20.20;99775.00;;;;342137;28;83361;-88
2021/08/10 00:22:07;;;;;;;;;;;20.00;95.30;20.20;99781.00;;;;341822;28;87601;-89
2021/08/10 00:22:18;;;;;;;;;;;20.00;95.30;20.20;99778.00;;;;340605;28;83577;-88
2021/08/10 00:22:30;;;;;;;;;;;20.00;95.30;20.20;99779.00;;;;339896;28;92088;-88
2021/08/10 00:22:44;;;;;;;;;;;20.00;95.40;20.20;99776.00;;;;342061;28;82512;-87
2021/08/10 00:22:55;;;;;;;;;;;20.00;95.40;20.20;99780.00;;;;337575;28;91482;-88
2021/08/10 00:23:07;;;;;;;;;;;20.00;95.30;20.20;99782.00;;;;340723;28;82553;-89
2021/08/10 00:23:19;;;;;;;;;;;20.10;95.30;20.20;99781.00;;;;340398;28;90474;-89
2021/08/10 00:23:31;;;;;;;;;;;20.00;95.20;20.20;99786.00;;;;339393;28;83415;-88
2021/08/10 00:23:42;;;;;;;;;;;20.00;95.30;20.20;99783.00;;;;338849;28;91191;-89
2021/08/10 00:23:54;;;;;;;;;;;20.00;95.20;20.20;99788.00;;;;340539;28;83493;-88
2021/08/10 00:24:06;;;;;;;;;;;20.00;95.30;20.10;99784.00;;;;341313;28;91354;-88
2021/08/10 00:24:18;;;;;;;;;;;20.00;95.30;20.10;99782.00;;;;340511;28;83580;-88
2021/08/10 00:24:30;;;;;;;;;;;20.00;95.30;20.10;99778.00;;;;340382;28;91082;-88
2021/08/10 00:24:41;;;;;;;;;;;20.00;95.30;20.10;99788.00;;;;340485;28;83539;-88
2021/08/10 00:24:53;;;;;;;;;;;20.00;95.40;20.00;99785.00;;;;338592;28;90968;-91
2021/08/10 00:25:05;;;;;;;;;;;20.00;95.60;20.10;99779.00;;;;340596;28;82495;-88
2021/08/10 00:25:17;;;;;;;;;;;20.00;95.60;20.10;99781.00;;;;337644;28;91685;-88
2021/08/10 00:25:29;;;;;;;;;;;20.00;95.40;20.10;99790.00;;;;341945;28;83443;-89
2021/08/10 00:25:41;;;;;;;;;;;20.00;95.50;20.10;99787.00;;;;341416;28;92160;-89
2021/08/10 00:25:53;;;;;;;;;;;20.00;95.30;20.10;99784.00;;;;340795;28;83377;-89
2021/08/10 00:26:04;;;;;;;;;;;20.00;95.40;20.10;99788.00;;;;340558;28;91528;-88
2021/08/10 00:26:16;;;;;;;;;;;20.00;95.30;20.20;99786.00;;;;339250;28;84078;-88
2021/08/10 00:26:28;;;;;;;;;;;20.00;95.30;20.10;99780.00;;;;340254;28;89392;-89
2021/08/10 00:26:40;;;;;;;;;;;20.00;95.40;20.10;99785.00;;;;340679;28;83391;-89
2021/08/10 00:26:51;;;;;;;;;;;20.00;95.50;20.10;99788.00;;;;340281;28;90904;-89
2021/08/10 00:27:03;;;;;;;;;;;20.00;95.40;20.10;99788.00;;;;341637;28;83546;-89
2021/08/10 00:27:15;;;;;;;;;;;20.00;95.50;20.10;99784.00;;;;341607;28;90596;-89
2021/08/10 00:27:27;;;;;;;;;;;20.00;95.40;20.10;99782.00;;;;343110;28;82516;-90
2021/08/10 00:27:39;;;;;;;;;;;20.00;95.50;20.10;99783.00;;;;340198;28;89743;-90
2021/08/10 00:27:51;;;;;;;;;;;20.00;95.60;20.00;99785.00;;;;341758;28;83504;-88
2021/08/10 00:28:03;;;;;;;;;;;20.00;95.70;20.00;99780.00;;;;341661;28;90313;-88
2021/08/10 00:28:15;;;;;;;;;;;20.00;95.60;20.00;99791.00;;;;339226;28;83526;-92
2021/08/10 00:28:27;;;;;;;;;;;20.00;95.70;20.00;99786.00;;;;341629;28;90208;-89
2021/08/10 00:28:39;;;;;;;;;;;19.90;95.60;20.00;99778.00;;;;343416;28;82575;-89
2021/08/10 00:28:51;;;;;;;;;;;19.90;95.60;20.00;99781.00;;;;338870;28;91444;-88
2021/08/10 00:29:03;;;;;;;;;;;19.90;95.60;20.00;99785.00;;;;340605;28;83684;-88
2021/08/10 00:29:15;;;;;;;;;;;19.90;95.90;20.00;99783.00;;;;341536;28;91764;-88
2021/08/10 00:29:27;;;;;;;;;;;19.90;95.90;20.10;99788.00;;;;341866;28;83513;-90
2021/08/10 00:29:38;;;;;;;;;;;19.90;95.80;20.20;99780.00;;;;340150;28;90939;-89
2021/08/10 00:29:50;;;;;;;;;;;19.90;95.70;20.10;99780.00;;;;343491;28;83408;-88
2021/08/10 00:30:02;;;;;;;;;;;19.90;95.60;20.10;99785.00;;;;342486;28;91716;-88
2021/08/10 00:30:14;;;;;;;;;;;19.90;95.60;20.10;99787.00;;;;341004;28;83462;-88
2021/08/10 00:30:26;;;;;;;;;;;19.90;95.60;20.10;99782.00;;;;340257;28;91564;-90
2021/08/10 00:30:41;;;;;;;;;;;19.90;95.60;20.00;99787.00;;;;342115;28;83435;-88
2021/08/10 00:30:53;;;;;;;;;;;19.90;95.60;19.90;99788.00;;;;341565;28;91430;-89
2021/08/10 00:31:05;;;;;;;;;;;19.90;95.80;19.90;99777.00;;;;339808;28;82627;-88
2021/08/10 00:31:16;;;;;;;;;;;19.90;95.80;20.00;99785.00;;;;341539;28;92133;-89
2021/08/10 00:31:28;;;;;;;;;;;19.90;95.70;20.10;99778.00;;;;342159;28;83399;-88
2021/08/10 00:31:40;;;;;;;;;;;19.90;95.70;20.00;99782.00;;;;340111;28;91838;-88
2021/08/10 00:31:52;;;;;;;;;;;19.90;95.80;20.00;99780.00;;;;342000;28;83244;-88
2021/08/10 00:32:04;;;;;;;;;;;19.90;95.80;19.90;99781.00;;;;341606;28;91694;-88
2021/08/10 00:32:16;;;;;;;;;;;19.90;95.80;19.90;99788.00;;;;340670;28;83344;-89
2021/08/10 00:32:28;;;;;;;;;;;19.90;95.80;19.90;99780.00;;;;340255;28;91890;-88
2021/08/10 00:32:40;;;;;;;;;;;19.90;95.80;19.90;99778.00;;;;343327;28;83579;-89
2021/08/10 00:32:51;;;;;;;;;;;19.90;95.80;19.90;99779.00;;;;341560;28;91771;-88
2021/08/10 00:33:04;;;;;;;;;;;19.90;95.80;19.90;99784.00;;;;341681;28;83766;-89
2021/08/10 00:33:16;;;;;;;;;;;19.90;95.80;19.90;99786.00;;;;341212;28;91291;-88
2021/08/10 00:33:27;;;;;;;;;;;19.90;95.70;19.90;99781.00;;;;339430;28;82588;-88
2021/08/10 00:33:39;;;;;;;;;;;19.80;95.70;19.90;99786.00;;;;340045;28;92584;-89
2021/08/10 00:33:51;;;;;;;;;;;19.80;95.70;19.90;99781.00;;;;342083;28;83884;-87
2021/08/10 00:34:03;;;;;;;;;;;19.90;95.60;19.90;99789.00;;;;338010;28;92019;-88
2021/08/10 00:34:14;;;;;;;;;;;19.80;96.00;19.80;99784.00;;;;337901;28;83597;-88
2021/08/10 00:34:26;;;;;;;;;;;19.80;95.90;19.80;99780.00;;;;340304;28;91002;-89
2021/08/10 00:34:38;;;;;;;;;;;19.90;96.00;19.90;99786.00;;;;339356;28;83330;-89
2021/08/10 00:34:51;;;;;;;;;;;19.80;96.00;19.90;99783.00;;;;341707;28;90491;-88
2021/08/10 00:35:03;;;;;;;;;;;19.80;95.90;19.90;99781.00;;;;340655;28;82614;-88
2021/08/10 00:35:15;;;;;;;;;;;19.80;95.90;19.90;99778.00;;;;337674;28;89843;-88
2021/08/10 00:35:27;;;;;;;;;;;19.80;95.90;19.90;99776.00;;;;343435;28;82605;-89
2021/08/10 00:35:38;;;;;;;;;;;19.80;95.90;20.00;99772.00;;;;342765;28;92556;-88
2021/08/10 00:35:50;;;;;;;;;;;19.80;95.80;20.00;99777.00;;;;339309;28;82358;-89
2021/08/10 00:36:02;;;;;;;;;;;19.80;95.90;20.00;99774.00;;;;340202;28;91385;-91
2021/08/10 00:36:14;;;;;;;;;;;19.80;95.90;20.00;99770.00;;;;341724;28;83450;-88
2021/08/10 00:36:26;;;;;;;;;;;19.80;95.80;20.00;99784.00;;;;342699;28;91672;-88
2021/08/10 00:36:37;;;;;;;;;;;19.80;95.70;20.10;99776.00;;;;342073;28;83391;-90
2021/08/10 00:36:49;;;;;;;;;;;19.80;95.80;20.00;99783.00;;;;340327;28;90244;-88
2021/08/10 00:37:05;;;;;;;;;;;19.80;95.80;20.10;99782.00;;;;341806;28;83394;-88
2021/08/10 00:37:17;;;;;;;;;;;19.80;95.80;20.00;99778.00;;;;340350;28;91473;-89
2021/08/10 00:37:29;;;;;;;;;;;19.80;95.80;20.00;99776.00;;;;340685;28;83480;-89
2021/08/10 00:37:41;;;;;;;;;;;19.90;95.90;20.00;99777.00;;;;340103;28;92575;-88
2021/08/10 00:37:53;;;;;;;;;;;19.80;95.80;20.00;99778.00;;;;343116;28;82626;-88
2021/08/10 00:38:04;;;;;;;;;;;19.80;95.80;20.00;99779.00;;;;340181;28;91388;-90
2021/08/10 00:38:16;;;;;;;;;;;19.90;95.80;20.00;99777.00;;;;339100;28;83521;-90
2021/08/10 00:38:28;;;;;;;;;;;19.90;95.90;20.00;99785.00;;;;340068;28;91701;-89
2021/08/10 00:38:40;;;;;;;;;;;19.80;95.90;20.00;99772.00;;;;341918;28;83435;-88
2021/08/10 00:38:52;;;;;;;;;;;19.80;95.80;20.00;99773.00;;;;341581;28;91975;-88
2021/08/10 00:39:05;;;;;;;;;;;19.80;95.80;20.00;99772.00;;;;343853;28;83579;-89
2021/08/10 00:39:17;;;;;;;;;;;19.90;96.00;20.00;99774.00;;;;343165;28;90556;-89
2021/08/10 00:39:29;;;;;;;;;;;19.80;95.90;20.00;99774.00;;;;340751;28;83525;-88
2021/08/10 00:39:41;;;;;;;;;;;19.80;95.90;20.00;99781.00;;;;340081;28;92329;-88
2021/08/10 00:39:52;;;;;;;;;;;19.90;95.90;20.00;99785.00;;;;340675;28;83425;-89
2021/08/10 00:40:05;;;;;;;;;;;19.80;95.80;19.90;99777.00;;;;339629;28;91799;-88
2021/08/10 00:40:18;;;;;;;;;;;19.90;96.00;19.90;99784.00;;;;339320;28;82628;-89
2021/08/10 00:40:31;;;;;;;;;;;19.80;96.10;19.90;99784.00;;;;340192;28;90399;-88
2021/08/10 00:40:42;;;;;;;;;;;19.80;96.10;19.80;99783.00;;;;343283;28;83549;-90
2021/08/10 00:40:54;;;;;;;;;;;19.80;96.30;19.80;99783.00;;;;342877;28;91507;-90
2021/08/10 00:41:06;;;;;;;;;;;19.80;96.30;19.80;99775.00;;;;341989;28;83518;-88
2021/08/10 00:41:18;;;;;;;;;;;19.80;96.30;19.90;99779.00;;;;340222;28;91390;-88
2021/08/10 00:41:31;;;;;;;;;;;19.80;96.10;20.00;99776.00;;;;344777;28;83516;-88
2021/08/10 00:41:42;;;;;;;;;;;19.80;96.10;20.00;99778.00;;;;341349;28;92055;-90
2021/08/10 00:41:54;;;;;;;;;;;19.80;96.00;19.90;99771.00;;;;339091;28;83451;-88
2021/08/10 00:42:06;;;;;;;;;;;19.80;96.00;20.00;99782.00;;;;342679;28;89044;-88
2021/08/10 00:42:18;;;;;;;;;;;19.80;96.00;20.00;99785.00;;;;339528;28;82597;-89
2021/08/10 00:42:30;;;;;;;;;;;19.80;96.00;19.90;99775.00;;;;338870;28;91804;-88
2021/08/10 00:42:41;;;;;;;;;;;19.80;96.00;19.90;99781.00;;;;339332;28;82635;-89
2021/08/10 00:42:54;;;;;;;;;;;19.80;96.00;19.90;99779.00;;;;341610;28;91455;-88
2021/08/10 00:43:28;;;;;;;;;;;19.80;96.10;19.90;99779.00;;;;339599;28;83578;-88
2021/08/10 00:43:41;;;;;;;;;;;19.80;96.00;20.00;99775.00;;;;338885;28;91656;-89
2021/08/10 00:43:53;;;;;;;;;;;19.80;96.00;20.00;99778.00;;;;342018;28;83415;-87
2021/08/10 00:44:05;;;;;;;;;;;19.80;96.00;20.00;99779.00;;;;342970;28;90776;-88
2021/08/10 00:44:17;;;;;;;;;;;19.80;96.00;20.10;99779.00;;;;339270;28;83473;-89
2021/08/10 00:44:29;;;;;;;;;;;19.80;96.00;20.00;99776.00;;;;338894;28;90516;-88
2021/08/10 00:44:40;;;;;;;;;;;19.80;96.10;19.90;99778.00;;;;339444;28;82412;-88
2021/08/10 00:44:52;;;;;;;;;;;19.80;96.10;19.90;99779.00;;;;342675;28;90586;-88
2021/08/10 00:45:04;;;;;;;;;;;19.80;96.10;20.00;99782.00;;;;340977;28;83663;-90
2021/08/10 00:45:16;;;;;;;;;;;19.80;96.10;19.90;99780.00;;;;341586;28;91384;-91
2021/08/10 00:45:28;;;;;;;;;;;19.80;96.00;19.90;99777.00;;;;342038;28;83370;-89
2021/08/10 00:45:40;;;;;;;;;;;19.80;96.00;19.90;99781.00;;;;340104;28;91355;-88
2021/08/10 00:45:52;;;;;;;;;;;19.80;96.10;19.80;99776.00;;;;340544;28;83567;-89
2021/08/10 00:46:06;;;;;;;;;;;19.80;96.10;19.70;99779.00;;;;342429;28;90614;-91
2021/08/10 00:46:18;;;;;;;;;;;19.80;96.10;19.80;99779.00;;;;339305;28;83245;-89
2021/08/10 00:46:29;;;;;;;;;;;19.80;96.10;19.90;99775.00;;;;341599;28;91383;-88
2021/08/10 00:46:41;;;;;;;;;;;19.80;96.40;19.90;99782.00;;;;340722;28;83340;-88
2021/08/10 00:46:53;;;;;;;;;;;19.80;96.10;19.80;99782.00;;;;338833;28;91861;-89
2021/08/10 00:47:05;;;;;;;;;;;19.80;96.10;19.80;99774.00;;;;343376;28;82505;-88
2021/08/10 00:47:17;;;;;;;;;;;19.80;96.10;19.70;99775.00;;;;338830;28;89772;-89
2021/08/10 00:47:28;;;;;;;;;;;19.70;96.20;19.70;99775.00;;;;339443;28;83345;-89
2021/08/10 00:47:40;;;;;;;;;;;19.70;96.30;19.60;99777.00;;;;338883;28;90690;-88
2021/08/10 00:47:52;;;;;;;;;;;19.70;96.30;19.60;99776.00;;;;341937;28;83577;-88
2021/08/10 00:48:04;;;;;;;;;;;19.80;96.40;19.70;99778.00;;;;339756;28;92515;-88
2021/08/10 00:48:18;;;;;;;;;;;19.70;96.40;19.70;99778.00;;;;339375;28;83518;-89
2021/08/10 00:48:30;;;;;;;;;;;19.80;96.50;19.70;99779.00;;;;340677;28;89181;-89
2021/08/10 00:48:42;;;;;;;;;;;19.70;96.40;19.70;99781.00;;;;340717;28;83366;-88
2021/08/10 00:48:54;;;;;;;;;;;19.70;96.30;19.70;99777.00;;;;339891;28;90872;-89
2021/08/10 00:49:06;;;;;;;;;;;19.70;96.30;19.70;99772.00;;;;341513;28;83565;-88
2021/08/10 00:49:17;;;;;;;;;;;19.70;96.20;19.70;99778.00;;;;340201;28;91611;-89
2021/08/10 00:49:29;;;;;;;;;;;19.70;96.20;19.70;99771.00;;;;341737;28;83543;-88
2021/08/10 00:49:41;;;;;;;;;;;19.70;96.20;19.70;99784.00;;;;340137;28;91595;-88
2021/08/10 00:49:53;;;;;;;;;;;19.70;96.20;19.70;99779.00;;;;340675;28;83642;-88
2021/08/10 00:50:05;;;;;;;;;;;19.70;96.20;19.60;99774.00;;;;341484;28;91879;-88
2021/08/10 00:50:17;;;;;;;;;;;19.70;96.40;19.70;99775.00;;;;343287;28;83464;-89
2021/08/10 00:50:28;;;;;;;;;;;19.60;96.30;19.70;99781.00;;;;338934;28;91521;-89
2021/08/10 00:50:40;;;;;;;;;;;19.70;96.30;19.70;99783.00;;;;343422;28;82599;-88
2021/08/10 00:50:52;;;;;;;;;;;19.70;96.20;19.70;99780.00;;;;341232;28;90473;-90
2021/08/10 00:51:05;;;;;;;;;;;19.70;96.50;19.60;99772.00;;;;341665;28;82644;-90
2021/08/10 00:51:17;;;;;;;;;;;19.70;96.40;19.60;99778.00;;;;340086;28;91625;-88
2021/08/10 00:51:28;;;;;;;;;;;19.70;96.50;19.60;99779.00;;;;341692;28;83387;-88
2021/08/10 00:51:40;;;;;;;;;;;19.60;96.50;19.60;99778.00;;;;340138;28;92296;-88
2021/08/10 00:51:52;;;;;;;;;;;19.60;96.50;19.50;99785.00;;;;340651;28;82478;-88
2021/08/10 00:52:04;;;;;;;;;;;19.60;96.50;19.60;99780.00;;;;338858;28;92490;-88
2021/08/10 00:52:16;;;;;;;;;;;19.60;96.50;19.60;99788.00;;;;340610;28;83456;-89
2021/08/10 00:52:28;;;;;;;;;;;19.60;96.60;19.70;99779.00;;;;340193;28;90534;-87
2021/08/10 00:52:40;;;;;;;;;;;19.60;96.50;19.70;99782.00;;;;341941;28;83404;-88
2021/08/10 00:52:52;;;;;;;;;;;19.70;96.40;19.70;99779.00;;;;341262;28;90515;-88
2021/08/10 00:53:04;;;;;;;;;;;19.60;96.50;19.70;99778.00;;;;341950;28;83478;-88
2021/08/10 00:53:16;;;;;;;;;;;19.60;96.50;19.70;99778.00;;;;340199;28;91836;-88
2021/08/10 00:53:27;;;;;;;;;;;19.60;96.40;19.70;99778.00;;;;340615;28;83484;-88
2021/08/10 00:53:39;;;;;;;;;;;19.60;96.50;19.70;99780.00;;;;337448;28;91413;-88
2021/08/10 00:53:51;;;;;;;;;;;19.70;96.50;19.70;99775.00;;;;340566;28;83468;-88
2021/08/10 00:54:03;;;;;;;;;;;19.60;96.40;19.70;99778.00;;;;340753;28;92240;-90
2021/08/10 00:54:15;;;;;;;;;;;19.60;96.30;19.80;99779.00;;;;340323;28;83530;-88
2021/08/10 00:54:27;;;;;;;;;;;19.60;96.30;19.80;99780.00;;;;340140;28;91344;-89
2021/08/10 00:54:39;;;;;;;;;;;19.60;96.30;19.80;99783.00;;;;338005;28;83257;-88
2021/08/10 00:54:50;;;;;;;;;;;19.60;96.30;19.80;99783.00;;;;338911;28;91595;-89
2021/08/10 00:55:03;;;;;;;;;;;19.70;96.30;19.70;99775.00;;;;341671;28;83114;-88
2021/08/10 00:55:15;;;;;;;;;;;19.60;96.40;19.80;99780.00;;;;340264;28;91466;-89
2021/08/10 00:55:26;;;;;;;;;;;19.60;96.30;19.80;99791.00;;;;340630;28;82589;-89
2021/08/10 00:55:38;;;;;;;;;;;19.70;96.30;19.80;99779.00;;;;340110;28;91545;-89
2021/08/10 00:55:50;;;;;;;;;;;19.70;96.40;19.80;99786.00;;;;340406;28;82626;-89
2021/08/10 00:56:06;;;;;;;;;;;19.60;96.30;19.70;99788.00;;;;341082;28;91113;-88
2021/08/10 00:56:17;;;;;;;;;;;19.60;96.40;19.70;99782.00;;;;341878;28;83462;-89
2021/08/10 00:56:29;;;;;;;;;;;19.70;96.50;19.60;99776.00;;;;340189;28;92257;-88
2021/08/10 00:56:41;;;;;;;;;;;19.60;96.60;19.60;99786.00;;;;339307;28;84125;-88
2021/08/10 00:56:53;;;;;;;;;;;19.60;96.70;19.60;99785.00;;;;340228;28;91209;-89
2021/08/10 00:57:05;;;;;;;;;;;19.60;96.70;19.70;99779.00;;;;341559;28;83551;-89
2021/08/10 00:57:17;;;;;;;;;;;19.60;96.70;19.70;99787.00;;;;343712;28;91680;-88
2021/08/10 00:57:29;;;;;;;;;;;19.60;96.60;19.70;99784.00;;;;343605;28;83393;-89
2021/08/10 00:57:40;;;;;;;;;;;19.60;96.50;19.70;99786.00;;;;340091;28;90555;-89
2021/08/10 00:57:52;;;;;;;;;;;19.60;96.40;19.70;99782.00;;;;340722;28;83318;-88
2021/08/10 00:58:04;;;;;;;;;;;19.60;96.50;19.80;99784.00;;;;340000;28;90936;-88
2021/08/10 00:58:16;;;;;;;;;;;19.60;96.50;19.90;99790.00;;;;337815;28;83599;-90
2021/08/10 00:58:28;;;;;;;;;;;19.60;96.60;19.80;99784.00;;;;342757;28;91515;-88
2021/08/10 00:58:40;;;;;;;;;;;19.60;96.60;19.90;99788.00;;;;340621;28;83468;-88
2021/08/10 00:58:51;;;;;;;;;;;19.60;96.60;19.80;99784.00;;;;340206;28;90585;-89
2021/08/10 00:59:03;;;;;;;;;;;19.60;96.50;19.80;99780.00;;;;340628;28;83495;-88
2021/08/10 00:59:15;;;;;;;;;;;19.60;96.40;19.80;99779.00;;;;341591;28;91418;-88
2021/08/10 00:59:27;;;;;;;;;;;19.60;96.40;19.80;99786.00;;;;339315;28;83518;-89
2021/08/10 00:59:39;;;;;;;;;;;19.60;96.40;19.90;99781.00;;;;337466;28;90881;-90
2021/08/10 00:59:50;;;;;;;;;;;19.70;96.50;19.90;99784.00;;;;340746;28;83412;-89